Beef Island, British Virgin Islands

11:52 PM AST on February 13, 2016 (GMT -0400)
Colison Point, Virgin Gorda | | Change Station
CLOSE
Current Station
Personal Weather Station
Location: Virgin Gorda, VIRGIN GORDA
Elevation: 165 ft
Nearby Weather Stations

Elev 165 ft 18.46 °N, 64.44 °W | Updated 0 second ago

Clear
Clear
77.2 °F
Feels Like 78 °F
N
2.7
Wind Variable Wind from ENE
Gusts 4.9 mph

Today
High -- | Low -- °F
--% Chance of Precip.
Yesterday
High -- | Low -- °F
Precip. -- in
Pressure 30.04 in
Visibility 10.0 miles
Clouds Clear
Heat Index 78 °F
Dew Point 76 °F
Humidity 95%
Rainfall 0.15 in
Snow Depth Not available.
6:47 AM 6:17 PM
Waxing Crescent, 37% visible
METAR TIST 140253Z 00000KT 10SM CLR 24/19 A3004 RMK AO2 SLP171 T02390189 51008
Pressure 30.04 in
Visibility 10.0 miles
Clouds Clear
Heat Index 78 °F
Dew Point 76 °F
Humidity 95%
Rainfall 0.15 in
Snow Depth Not available.
6:47 AM 6:17 PM
Waxing Crescent, 37% visible
METAR TIST 140253Z 00000KT 10SM CLR 24/19 A3004 RMK AO2 SLP171 T02390189 51008

10-Day Weather Forecast

Almanac

Astronomy

Feb. 13, 2016 Rise Set
Actual Time
Civil Twilight
Nautical Twilight
Astronomical Twilight
Moon
Length of Visible Light
Length of Day
Tomorrow will be .
, % of the Moon is Illuminated

Today's Extremes

Country Highs Country Lows

Community

WunderPhotos

Upload Photos

1,892,738 photos uploaded!

WunderBlog® & News

Nearby

Air Quality

  Air Quality AQ Index Pollutant
Not available.

Snow Depth

Station Depth Elevation

Earthquake Activity

City Distance Mag. Time & Date
Minimum magnitude displayed is 2.5.

Coastal Water Temperatures

Place Temperature

Stations

Nearby Weather Stations

Station Location Temp. Windchill Dew Point Humidity Wind Precip. Elev Updated Type